Time;durP1;ratioP1;P1;durP2;ratioP2;P2;SDS_P1;SDS_P2;PMS_P1;PMS_P2;Temp;Humidity;BMP_temperature;BMP_pressure;BME280_temperature;BME280_humidity;BME280_pressure;Samples;Min_cycle;Max_cycle;Signal;HPM_P1;HPM_P2
2023/12/24 00:01:14;;;;;;;2.22;1.08;;;;;;;5.16;100.00;93932.28;5089603;28;20496;-68
2023/12/24 00:03:41;;;;;;;2.00;0.90;;;;;;;5.11;100.00;93938.09;5089429;28;20048;-69
2023/12/24 00:06:08;;;;;;;2.45;1.20;;;;;;;5.18;100.00;93931.91;5090064;28;20042;-71
2023/12/24 00:08:36;;;;;;;1.80;0.90;;;;;;;5.21;100.00;93933.84;5089358;28;20542;-68
2023/12/24 00:11:05;;;;;;;2.10;0.90;;;;;;;5.19;100.00;93934.25;5090021;28;20048;-68
2023/12/24 00:13:33;;;;;;;1.65;0.80;;;;;;;5.26;100.00;93924.56;5071347;28;20052;-68
2023/12/24 00:16:01;;;;;;;2.20;0.80;;;;;;;5.25;100.00;93923.00;5089636;28;20549;-68
2023/12/24 00:18:27;;;;;;;1.90;0.98;;;;;;;5.28;100.00;93944.78;5089783;28;20040;-68
2023/12/24 00:20:55;;;;;;;1.80;0.90;;;;;;;5.31;100.00;93943.22;5050838;28;20824;-69
2023/12/24 00:23:22;;;;;;;1.80;0.90;;;;;;;5.35;100.00;93954.91;5083065;28;20052;-70
2023/12/24 00:25:49;;;;;;;1.70;0.73;;;;;;;5.34;100.00;93953.38;5075517;28;20044;-68
2023/12/24 00:28:15;;;;;;;1.80;0.80;;;;;;;5.39;100.00;93953.00;5088361;28;20055;-70
2023/12/24 00:30:43;;;;;;;1.70;0.75;;;;;;;5.39;100.00;93961.16;5089026;28;20432;-68
2023/12/24 00:33:10;;;;;;;12.10;5.67;;;;;;;5.42;100.00;93956.91;5071453;28;20475;-68
2023/12/24 00:35:37;;;;;;;3.75;1.70;;;;;;;5.38;100.00;93965.81;5088901;28;20553;-68
2023/12/24 00:38:04;;;;;;;2.00;1.00;;;;;;;5.42;100.00;93957.69;5090171;28;20039;-69
2023/12/24 00:40:31;;;;;;;1.42;0.70;;;;;;;5.42;100.00;93954.97;5093313;28;20044;-68
2023/12/24 00:42:58;;;;;;;1.70;0.80;;;;;;;5.43;100.00;93950.28;5075715;28;20040;-69
2023/12/24 00:45:25;;;;;;;1.73;0.80;;;;;;;5.40;100.00;93952.63;5090962;28;20408;-68
2023/12/24 00:47:51;;;;;;;1.52;0.70;;;;;;;5.51;100.00;93947.22;5092718;28;20049;-68
2023/12/24 00:50:18;;;;;;;1.80;1.00;;;;;;;5.50;100.00;93950.34;5093311;28;20047;-68
2023/12/24 00:52:46;;;;;;;1.60;0.70;;;;;;;5.43;100.00;93945.63;5092886;28;20416;-69
2023/12/24 00:55:13;;;;;;;1.60;0.80;;;;;;;5.39;100.00;93955.72;5093363;28;20036;-68
2023/12/24 00:57:40;;;;;;;1.80;0.73;;;;;;;5.46;100.00;93955.75;5073582;28;20044;-69
2023/12/24 01:00:08;;;;;;;2.42;0.90;;;;;;;5.38;100.00;93954.94;5080796;28;20695;-69
2023/12/24 01:02:35;;;;;;;1.70;0.70;;;;;;;5.41;100.00;93969.72;5092957;28;20044;-69
2023/12/24 01:05:04;;;;;;;1.60;0.70;;;;;;;5.39;100.00;93959.22;5093375;28;20052;-68
2023/12/24 01:07:31;;;;;;;1.88;0.73;;;;;;;5.40;100.00;93949.88;5092885;28;20042;-68
2023/12/24 01:09:58;;;;;;;2.27;0.70;;;;;;;5.30;100.00;93949.84;5093462;28;20378;-68
2023/12/24 01:12:25;;;;;;;1.60;0.70;;;;;;;5.35;100.00;93953.00;5092893;28;20112;-68
2023/12/24 01:14:51;;;;;;;1.60;0.60;;;;;;;5.44;100.00;93955.34;5074387;28;20048;-68
2023/12/24 01:17:18;;;;;;;2.00;0.70;;;;;;;5.36;100.00;93946.38;5093373;28;20040;-69
2023/12/24 01:19:45;;;;;;;1.60;0.80;;;;;;;5.32;100.00;93934.69;5074608;28;20445;-68
2023/12/24 01:22:12;;;;;;;2.08;1.00;;;;;;;5.38;100.00;93937.84;5093068;28;20032;-68
2023/12/24 01:24:38;;;;;;;1.70;0.70;;;;;;;5.36;100.00;93951.03;5091777;28;20052;-68
2023/12/24 01:27:06;;;;;;;2.38;0.93;;;;;;;5.32;100.00;93951.03;5092504;28;20474;-69
2023/12/24 01:29:32;;;;;;;1.60;0.73;;;;;;;5.37;100.00;93945.22;5092267;28;20464;-69
2023/12/24 01:31:59;;;;;;;2.15;0.90;;;;;;;5.34;100.00;93954.13;5092733;28;20040;-68
2023/12/24 01:34:26;;;;;;;1.90;1.00;;;;;;;5.39;100.00;93955.72;5091648;28;20054;-68
2023/12/24 01:36:53;;;;;;;1.88;0.80;;;;;;;5.36;100.00;93946.38;5091875;28;20040;-68
2023/12/24 01:39:20;;;;;;;2.22;0.90;;;;;;;5.31;100.00;93952.19;5092475;28;20040;-68
2023/12/24 01:41:47;;;;;;;1.70;0.70;;;;;;;5.35;100.00;93947.56;5091712;28;20388;-68
2023/12/24 01:44:14;;;;;;;2.40;0.90;;;;;;;5.28;100.00;93950.22;5090032;28;20412;-68
2023/12/24 01:46:41;;;;;;;1.83;0.70;;;;;;;5.42;100.00;93957.69;5090527;28;20069;-68
2023/12/24 01:49:09;;;;;;;1.90;0.75;;;;;;;5.43;100.00;93950.28;5092029;28;20346;-69
2023/12/24 01:51:36;;;;;;;1.80;0.70;;;;;;;5.44;100.00;93960.03;5091566;28;20160;-67
2023/12/24 01:54:03;;;;;;;1.70;0.80;;;;;;;5.39;100.00;93951.06;5092386;28;20047;-67
2023/12/24 01:56:32;;;;;;;1.70;0.93;;;;;;;5.38;100.00;93963.09;5082432;28;20037;-67
2023/12/24 01:59:00;;;;;;;1.83;0.70;;;;;;;5.42;100.00;93962.34;5072057;28;20046;-67
2023/12/24 02:01:27;;;;;;;2.20;0.80;;;;;;;5.43;100.00;93956.50;5090607;28;20101;-68
2023/12/24 02:03:55;;;;;;;1.60;0.82;;;;;;;5.40;100.00;93970.88;5090135;28;20111;-68
2023/12/24 02:06:25;;;;;;;1.70;0.80;;;;;;;5.43;100.00;93959.22;5092013;28;20044;-68
2023/12/24 02:08:52;;;;;;;1.90;1.00;;;;;;;5.34;100.00;93965.03;5091364;28;20039;-69
2023/12/24 02:11:20;;;;;;;2.83;0.90;;;;;;;5.31;100.00;93956.84;5092027;28;20058;-68
2023/12/24 02:13:48;;;;;;;2.25;0.90;;;;;;;5.37;100.00;93955.31;5091507;28;20412;-70
2023/12/24 02:16:20;;;;;;;1.60;0.80;;;;;;;5.36;100.00;93956.47;5072099;28;20052;-69
2023/12/24 02:18:47;;;;;;;2.05;0.90;;;;;;;5.39;100.00;93951.06;5091475;28;20400;-68
2023/12/24 02:21:14;;;;;;;1.98;1.05;;;;;;;5.43;100.00;93951.06;5091628;28;20071;-68
2023/12/24 02:23:41;;;;;;;2.00;0.83;;;;;;;5.39;100.00;93953.78;5091273;28;20052;-69
2023/12/24 02:26:23;;;;;;;2.13;1.00;;;;;;;5.49;100.00;93943.31;5091477;28;20696;-69
2023/12/24 02:28:56;;;;;;;1.70;0.75;;;;;;;5.49;100.00;93946.03;5091422;28;20046;-69
2023/12/24 02:31:26;;;;;;;1.92;1.10;;;;;;;5.50;100.00;93942.16;5091536;28;20042;-69
2023/12/24 02:33:57;;;;;;;1.95;0.77;;;;;;;5.51;100.00;93946.44;5069597;28;20523;-70
2023/12/24 02:36:25;;;;;;;2.10;1.00;;;;;;;5.40;100.00;93930.06;5084879;28;20106;-69
2023/12/24 02:38:52;;;;;;;1.70;0.80;;;;;;;5.44;100.00;93933.59;5090879;28;20052;-69
2023/12/24 02:41:18;;;;;;;2.25;1.10;;;;;;;5.36;100.00;93924.59;5091280;28;20046;-70
2023/12/24 02:43:45;;;;;;;2.95;0.90;;;;;;;5.51;100.00;93930.88;5090961;28;20036;-69
2023/12/24 02:46:12;;;;;;;2.55;1.00;;;;;;;5.46;100.00;93935.94;5087774;28;20044;-68
2023/12/24 02:48:39;;;;;;;1.87;0.90;;;;;;;5.56;100.00;93932.47;5090815;28;20050;-69
2023/12/24 02:51:06;;;;;;;1.67;0.68;;;;;;;5.53;100.00;93946.84;5091061;28;20439;-69
2023/12/24 02:53:32;;;;;;;1.83;1.10;;;;;;;5.60;100.00;93934.03;5090872;28;20055;-68
2023/12/24 02:56:00;;;;;;;2.10;1.10;;;;;;;5.57;100.00;93936.75;5085610;28;20046;-69
2023/12/24 02:58:27;;;;;;;1.77;0.77;;;;;;;5.61;100.00;93940.25;5071369;28;20045;-69
2023/12/24 03:00:54;;;;;;;1.70;0.90;;;;;;;5.47;100.00;93923.88;5075192;28;20610;-69
2023/12/24 03:03:21;;;;;;;1.70;0.70;;;;;;;5.57;100.00;93942.97;5090529;28;20042;-69
2023/12/24 03:05:48;;;;;;;2.30;0.90;;;;;;;5.58;100.00;93941.81;5090072;28;20044;-69
2023/12/24 03:08:15;;;;;;;2.75;1.00;;;;;;;5.50;100.00;93950.34;5090898;28;20059;-68
2023/12/24 03:10:42;;;;;;;1.90;0.80;;;;;;;5.51;100.00;93941.00;5090157;28;20047;-69
2023/12/24 03:13:08;;;;;;;1.80;0.80;;;;;;;5.51;100.00;93947.22;5090377;28;20466;-69
2023/12/24 03:15:35;;;;;;;3.75;1.33;;;;;;;5.52;100.00;93940.63;5090423;28;20048;-68
2023/12/24 03:18:02;;;;;;;18.00;8.30;;;;;;;5.51;100.00;93951.88;5071958;28;20052;-69
2023/12/24 03:20:29;;;;;;;1.90;0.90;;;;;;;5.49;100.00;93948.75;5090176;28;20044;-69
2023/12/24 03:22:56;;;;;;;1.70;0.75;;;;;;;5.60;100.00;93938.72;5090342;28;20032;-69
2023/12/24 03:25:23;;;;;;;2.00;1.10;;;;;;;5.60;100.00;93938.72;5068867;28;20040;-69
2023/12/24 03:27:50;;;;;;;2.53;0.85;;;;;;;5.55;100.00;93941.78;5086764;28;20046;-69
2023/12/24 03:30:17;;;;;;;1.83;0.90;;;;;;;5.62;100.00;93951.94;5090588;28;20036;-69
2023/12/24 03:32:44;;;;;;;1.75;0.80;;;;;;;5.63;100.00;93942.59;5089781;28;20093;-69
2023/12/24 03:35:11;;;;;;;3.05;1.30;;;;;;;5.59;100.00;93924.31;5080187;28;20479;-69
2023/12/24 03:37:38;;;;;;;2.00;1.00;;;;;;;5.59;100.00;93918.88;5089631;28;20395;-69
2023/12/24 03:40:05;;;;;;;4.20;1.55;;;;;;;5.54;100.00;93924.69;5090033;28;20036;-69
2023/12/24 03:42:32;;;;;;;3.33;1.30;;;;;;;5.53;100.00;93922.34;5089822;28;20048;-69
2023/12/24 03:44:58;;;;;;;8.80;2.10;;;;;;;5.47;100.00;93913.75;5068532;28;20397;-68
2023/12/24 03:47:25;;;;;;;2.95;1.20;;;;;;;5.42;100.00;93911.41;5080842;28;20401;-68
2023/12/24 03:49:52;;;;;;;6.30;1.80;;;;;;;5.51;100.00;93911.06;5060130;28;20504;-69
2023/12/24 03:52:19;;;;;;;14.20;3.58;;;;;;;5.47;100.00;93904.81;5069845;28;20060;-70
2023/12/24 03:54:45;;;;;;;4.15;1.48;;;;;;;5.47;100.00;93900.16;5088219;28;20039;-69
2023/12/24 03:57:12;;;;;;;2.92;1.33;;;;;;;5.53;100.00;93904.09;5090282;28;20442;-69
2023/12/24 03:59:39;;;;;;;3.10;1.33;;;;;;;5.45;100.00;93910.63;5067982;28;20039;-69
2023/12/24 04:02:06;;;;;;;2.80;1.10;;;;;;;5.50;100.00;93904.84;5081434;28;20048;-69
2023/12/24 04:04:33;;;;;;;2.50;1.20;;;;;;;5.44;100.00;93883.81;5089082;28;20087;-69
2023/12/24 04:07:00;;;;;;;5.50;1.58;;;;;;;5.44;100.00;93895.47;5089942;28;20036;-70
2023/12/24 04:09:29;;;;;;;4.85;1.50;;;;;;;5.47;100.00;93888.47;5090006;28;20048;-70
2023/12/24 04:11:56;;;;;;;3.13;1.50;;;;;;;5.44;100.00;93892.00;5081008;28;20880;-69
2023/12/24 04:14:23;;;;;;;8.70;2.63;;;;;;;5.46;100.00;93885.00;5090057;28;20043;-70
2023/12/24 04:16:50;;;;;;;3.00;1.25;;;;;;;5.51;100.00;93892.78;5089463;28;20457;-69
2023/12/24 04:19:16;;;;;;;3.20;1.30;;;;;;;5.51;100.00;93881.09;5068206;28;20052;-68
2023/12/24 04:21:43;;;;;;;2.28;1.20;;;;;;;5.62;100.00;93881.94;5081253;28;20419;-70
2023/12/24 04:24:10;;;;;;;2.03;1.02;;;;;;;5.45;100.00;93882.66;5068381;28;20040;-69
2023/12/24 04:26:37;;;;;;;3.30;1.23;;;;;;;5.40;100.00;93875.63;5073664;28;20040;-69
2023/12/24 04:29:04;;;;;;;3.15;1.50;;;;;;;5.42;100.00;93873.31;5087241;28;20050;-69
2023/12/24 04:31:31;;;;;;;2.72;1.45;;;;;;;5.38;100.00;93867.09;5089143;28;20048;-70
2023/12/24 04:33:57;;;;;;;3.10;1.40;;;;;;;5.42;100.00;93859.72;5066383;28;20032;-69
2023/12/24 04:36:24;;;;;;;3.80;1.60;;;;;;;5.56;100.00;93872.59;5089480;28;20392;-69
2023/12/24 04:38:51;;;;;;;3.17;1.53;;;;;;;5.53;100.00;93879.59;5089116;28;20054;-69
2023/12/24 04:41:18;;;;;;;2.60;1.30;;;;;;;5.59;100.00;93883.50;5089691;28;20043;-70
2023/12/24 04:43:45;;;;;;;5.07;1.88;;;;;;;5.58;100.00;93872.97;5089095;28;20048;-70
2023/12/24 04:46:12;;;;;;;2.78;1.02;;;;;;;5.55;100.00;93871.00;5089412;28;20044;-69
2023/12/24 04:48:39;;;;;;;3.08;1.17;;;;;;;5.54;100.00;93858.59;5087507;28;20040;-69
2023/12/24 04:51:06;;;;;;;3.10;1.50;;;;;;;5.56;100.00;93864.41;5089169;28;20039;-69
2023/12/24 04:53:33;;;;;;;2.38;1.10;;;;;;;5.56;100.00;93869.88;5071112;28;20511;-69
2023/12/24 04:55:59;;;;;;;2.25;1.23;;;;;;;5.59;100.00;93872.59;5089354;28;20043;-69
2023/12/24 04:58:26;;;;;;;2.63;1.50;;;;;;;5.38;100.00;93875.25;5089570;28;20044;-69
2023/12/24 05:00:53;;;;;;;3.70;1.60;;;;;;;5.46;100.00;93885.00;5088286;28;20047;-69
2023/12/24 05:03:20;;;;;;;2.33;1.20;;;;;;;5.57;100.00;93876.84;5089483;28;20080;-69
2023/12/24 05:05:47;;;;;;;2.50;1.20;;;;;;;5.55;100.00;93879.97;5071762;28;20044;-69
2023/12/24 05:08:14;;;;;;;2.30;1.40;;;;;;;5.60;100.00;93873.38;5068208;28;20094;-69
2023/12/24 05:10:41;;;;;;;2.63;1.23;;;;;;;5.54;100.00;93872.97;5083173;28;20047;-71
2023/12/24 05:13:11;;;;;;;2.53;1.25;;;;;;;5.51;100.00;93864.78;5088197;28;20430;-69
2023/12/24 05:15:38;;;;;;;2.47;1.20;;;;;;;5.56;100.00;93867.91;5088818;28;20040;-69
2023/12/24 05:18:05;;;;;;;3.28;1.30;;;;;;;5.59;100.00;93861.72;5089361;28;20040;-69
2023/12/24 05:20:32;;;;;;;2.10;0.98;;;;;;;5.51;100.00;93862.81;5088612;28;20101;-69
2023/12/24 05:22:58;;;;;;;2.25;1.00;;;;;;;5.52;100.00;93866.34;5087928;28;20545;-69
2023/12/24 05:25:25;;;;;;;2.10;1.20;;;;;;;5.44;100.00;93865.53;5089677;28;20052;-69
2023/12/24 05:27:52;;;;;;;2.43;1.27;;;;;;;5.43;100.00;93861.25;5073979;28;20570;-70
2023/12/24 05:30:19;;;;;;;2.40;1.10;;;;;;;5.47;100.00;93877.59;5081411;28;20066;-69
2023/12/24 05:32:45;;;;;;;2.08;0.90;;;;;;;5.52;100.00;93864.41;5089849;28;20047;-69
2023/12/24 05:35:12;;;;;;;1.88;0.90;;;;;;;5.51;100.00;93878.38;5092810;28;20046;-69
2023/12/24 05:37:39;;;;;;;2.10;1.20;;;;;;;5.43;100.00;93872.13;5091834;28;20120;-69
2023/12/24 05:40:07;;;;;;;2.33;1.03;;;;;;;5.39;100.00;93865.91;5092526;28;20116;-70
2023/12/24 05:42:33;;;;;;;2.08;1.00;;;;;;;5.44;100.00;93862.81;5092191;28;20052;-69
2023/12/24 05:45:00;;;;;;;2.05;1.15;;;;;;;5.45;100.00;93871.75;5089335;28;20051;-70
2023/12/24 05:47:27;;;;;;;1.92;1.20;;;;;;;5.49;100.00;93873.31;5092177;28;20047;-69
2023/12/24 05:49:53;;;;;;;2.88;1.00;;;;;;;5.56;100.00;93876.06;5062223;28;20778;-69
2023/12/24 05:52:20;;;;;;;3.73;1.60;;;;;;;5.50;100.00;93869.44;5084670;28;20374;-70
2023/12/24 05:54:47;;;;;;;2.10;1.00;;;;;;;5.45;100.00;93858.94;5070347;28;20037;-69
2023/12/24 05:57:14;;;;;;;2.15;1.10;;;;;;;5.52;100.00;93863.63;5071033;28;20045;-69
2023/12/24 05:59:41;;;;;;;1.80;0.93;;;;;;;5.49;100.00;93858.94;5090916;28;20036;-69
2023/12/24 06:02:07;;;;;;;1.95;1.00;;;;;;;5.46;100.00;93841.44;5070282;28;20040;-69
2023/12/24 06:04:34;;;;;;;1.93;1.10;;;;;;;5.46;100.00;93852.34;5085627;28;20074;-70
2023/12/24 06:07:01;;;;;;;1.65;0.75;;;;;;;5.37;100.00;93855.44;5070755;28;20109;-69
2023/12/24 06:09:28;;;;;;;2.42;1.00;;;;;;;5.32;100.00;93855.78;5084169;28;20036;-69
2023/12/24 06:11:55;;;;;;;2.20;0.90;;;;;;;5.30;100.00;93855.38;5056477;28;21809;-70
2023/12/24 06:14:21;;;;;;;2.00;1.17;;;;;;;5.32;100.00;93852.28;5091891;28;20036;-69
2023/12/24 06:16:48;;;;;;;1.70;0.70;;;;;;;5.33;100.00;93853.84;5069534;28;20082;-69
2023/12/24 06:19:15;;;;;;;1.58;0.63;;;;;;;5.29;100.00;93853.84;5083103;28;20420;-70
2023/12/24 06:21:44;;;;;;;1.60;0.80;;;;;;;5.29;100.00;93855.75;5091103;28;20377;-69
2023/12/24 06:24:11;;;;;;;1.45;0.68;;;;;;;5.30;100.00;93849.94;5091640;28;20036;-69
2023/12/24 06:26:37;;;;;;;1.60;0.90;;;;;;;5.42;100.00;93858.94;5090722;28;20044;-71
2023/12/24 06:29:04;;;;;;;2.00;1.00;;;;;;;5.35;100.00;93852.31;5091617;28;20044;-69
2023/12/24 06:31:31;;;;;;;2.08;1.00;;;;;;;5.40;100.00;93843.75;5090820;28;20051;-69
2023/12/24 06:33:58;;;;;;;2.33;0.98;;;;;;;5.36;100.00;93850.34;5089841;28;20264;-69
2023/12/24 06:36:25;;;;;;;2.50;1.40;;;;;;;5.43;100.00;93852.31;5091325;28;20047;-69
2023/12/24 06:38:51;;;;;;;1.70;0.90;;;;;;;5.46;100.00;93857.78;5091207;28;20044;-70
2023/12/24 06:41:18;;;;;;;1.70;0.80;;;;;;;5.44;100.00;93845.72;5091563;28;20450;-69
2023/12/24 06:43:45;;;;;;;1.55;0.82;;;;;;;5.41;100.00;93847.25;5090609;28;20404;-69
2023/12/24 06:46:12;;;;;;;1.60;0.88;;;;;;;5.45;100.00;93853.47;5090294;28;20051;-69
2023/12/24 06:48:39;;;;;;;1.58;0.70;;;;;;;5.49;100.00;93857.00;5069951;28;20412;-69
2023/12/24 06:51:07;;;;;;;1.70;0.85;;;;;;;5.53;100.00;93857.81;5091436;28;20362;-70
2023/12/24 06:53:35;;;;;;;1.60;0.80;;;;;;;5.49;100.00;93875.28;5090784;28;20044;-69
2023/12/24 06:56:02;;;;;;;2.10;1.00;;;;;;;5.58;100.00;93881.91;5090787;28;20036;-69
2023/12/24 06:58:29;;;;;;;2.05;0.95;;;;;;;5.58;100.00;93887.38;5090332;28;20047;-69
2023/12/24 07:00:55;;;;;;;1.80;0.70;;;;;;;5.63;100.00;93878.03;5084647;28;20055;-69
2023/12/24 07:03:22;;;;;;;1.67;0.90;;;;;;;5.67;100.00;93886.22;5071484;28;20049;-69
2023/12/24 07:05:49;;;;;;;2.00;0.60;;;;;;;5.69;100.00;93867.56;5085675;28;20047;-71
2023/12/24 07:08:16;;;;;;;1.92;0.98;;;;;;;5.58;100.00;93871.03;5069293;28;20036;-69
2023/12/24 07:10:43;;;;;;;2.10;1.08;;;;;;;5.60;100.00;93854.31;5083660;28;20489;-69
2023/12/24 07:13:10;;;;;;;2.72;0.80;;;;;;;5.62;100.00;93853.94;5077517;28;20454;-70
2023/12/24 07:15:42;;;;;;;1.65;0.80;;;;;;;5.66;100.00;93852.78;5090267;28;20036;-70
2023/12/24 07:18:09;;;;;;;1.50;0.80;;;;;;;5.66;100.00;93838.38;5090523;28;20040;-69
2023/12/24 07:20:36;;;;;;;4.03;1.60;;;;;;;5.66;100.00;93843.84;5090362;28;20395;-70
2023/12/24 07:23:03;;;;;;;7.93;3.55;;;;;;;5.57;100.00;93844.19;5090071;28;20423;-69
2023/12/24 07:25:30;;;;;;;4.93;2.50;;;;;;;5.55;100.00;93828.25;5089778;28;20485;-67
2023/12/24 07:27:56;;;;;;;9.60;4.35;;;;;;;5.59;100.00;93826.31;5090543;28;20040;-69
2023/12/24 07:30:23;;;;;;;1.77;0.87;;;;;;;5.58;100.00;93821.25;5090599;28;20043;-69
2023/12/24 07:32:50;;;;;;;5.25;2.45;;;;;;;5.63;100.00;93826.31;5068241;28;20082;-68
2023/12/24 07:35:18;;;;;;;1.80;1.00;;;;;;;5.57;100.00;93817.75;5082022;28;20398;-69
2023/12/24 07:37:48;;;;;;;2.38;1.33;;;;;;;5.66;100.00;93819.34;5089757;28;20066;-70
2023/12/24 07:40:15;;;;;;;13.18;7.43;;;;;;;5.71;100.00;93800.66;5069794;28;20043;-70
2023/12/24 07:42:41;;;;;;;3.37;1.70;;;;;;;5.67;100.00;93810.00;5069746;28;20040;-68
2023/12/24 07:45:09;;;;;;;2.85;1.80;;;;;;;5.63;100.00;93812.69;5086474;28;20040;-68
2023/12/24 07:47:35;;;;;;;4.85;2.67;;;;;;;5.78;100.00;93824.41;5089113;28;20054;-69
2023/12/24 07:50:02;;;;;;;3.47;1.70;;;;;;;5.82;100.00;93821.69;5068802;28;20382;-70
2023/12/24 07:52:29;;;;;;;4.07;2.20;;;;;;;5.85;100.00;93820.91;5082357;28;20040;-69
2023/12/24 07:54:56;;;;;;;1.90;1.00;;;;;;;5.79;100.00;93817.78;5089858;28;20040;-70
2023/12/24 07:57:23;;;;;;;2.30;1.38;;;;;;;5.79;100.00;93813.13;5090347;28;20050;-68
2023/12/24 07:59:50;;;;;;;2.10;0.98;;;;;;;5.81;100.00;93810.00;5068114;28;20396;-68
2023/12/24 08:02:17;;;;;;;2.40;0.93;;;;;;;5.77;100.00;93815.44;5070863;28;20101;-70
2023/12/24 08:04:44;;;;;;;1.63;0.93;;;;;;;5.84;100.00;93811.97;5074649;28;20412;-69
2023/12/24 08:07:10;;;;;;;2.10;1.20;;;;;;;5.75;100.00;93819.72;5089763;28;20036;-69
2023/12/24 08:09:38;;;;;;;2.30;1.10;;;;;;;5.70;100.00;93818.16;5089026;28;20044;-69
2023/12/24 08:12:05;;;;;;;2.38;1.17;;;;;;;5.68;100.00;93823.22;5090072;28;20485;-68
2023/12/24 08:14:31;;;;;;;1.73;0.95;;;;;;;5.71;100.00;93827.88;5089125;28;20039;-68
2023/12/24 08:16:58;;;;;;;1.98;1.10;;;;;;;5.75;100.00;93831.38;5089836;28;20409;-69
2023/12/24 08:19:25;;;;;;;1.97;1.00;;;;;;;5.80;100.00;93841.13;5089278;28;20400;-70
2023/12/24 08:21:52;;;;;;;1.80;1.10;;;;;;;5.88;100.00;93839.97;5089264;28;20074;-69
2023/12/24 08:24:19;;;;;;;2.15;1.20;;;;;;;5.87;100.00;93838.41;5089842;28;20458;-69
2023/12/24 08:26:46;;;;;;;2.60;0.90;;;;;;;5.91;100.00;93847.34;5088810;28;20395;-68
2023/12/24 08:29:12;;;;;;;3.10;1.58;;;;;;;5.91;100.00;93850.09;5089461;28;20100;-68
2023/12/24 08:31:39;;;;;;;2.10;1.10;;;;;;;5.84;100.00;93852.03;5088894;28;20400;-69
2023/12/24 08:34:06;;;;;;;3.22;1.50;;;;;;;5.87;100.00;93832.19;5088817;28;20040;-71
2023/12/24 08:36:33;;;;;;;3.08;1.60;;;;;;;5.85;100.00;93823.63;5089002;28;20051;-69
2023/12/24 08:39:00;;;;;;;2.83;1.42;;;;;;;5.89;100.00;93822.47;5089543;28;20040;-70
2023/12/24 08:41:27;;;;;;;2.20;1.10;;;;;;;5.76;100.00;93827.50;5089345;28;20097;-68
2023/12/24 08:43:54;;;;;;;2.67;1.20;;;;;;;5.84;100.00;93813.91;5089049;28;20750;-69
2023/12/24 08:46:21;;;;;;;2.20;1.20;;;;;;;5.84;100.00;93806.50;5086225;28;20416;-69
2023/12/24 08:48:48;;;;;;;2.30;1.30;;;;;;;5.79;100.00;93815.84;5088880;28;20450;-69
2023/12/24 08:51:14;;;;;;;2.20;1.10;;;;;;;5.76;100.00;93821.28;5089367;28;20447;-69
2023/12/24 08:53:41;;;;;;;2.53;1.40;;;;;;;5.72;100.00;93820.50;5089134;28;20044;-68
2023/12/24 08:56:08;;;;;;;3.30;1.40;;;;;;;5.84;100.00;93817.41;5088962;28;20465;-68
2023/12/24 08:58:35;;;;;;;3.08;1.42;;;;;;;5.86;100.00;93825.97;5089167;28;20043;-69
2023/12/24 09:01:02;;;;;;;2.53;1.42;;;;;;;5.90;100.00;93837.66;5089380;28;20040;-68
2023/12/24 09:03:28;;;;;;;2.78;1.40;;;;;;;5.91;100.00;93833.75;5089609;28;20050;-66
2023/12/24 09:05:55;;;;;;;2.90;1.50;;;;;;;5.92;100.00;93824.41;5093155;28;20036;-68
2023/12/24 09:08:22;;;;;;;2.50;1.20;;;;;;;5.93;100.00;93836.84;5071854;28;20040;-68
2023/12/24 09:10:49;;;;;;;2.38;1.38;;;;;;;5.95;100.00;93829.09;5090471;28;20052;-68
2023/12/24 09:13:16;;;;;;;3.75;1.75;;;;;;;5.95;100.00;93834.56;5093139;28;20505;-69
2023/12/24 09:15:45;;;;;;;2.97;1.20;;;;;;;6.00;100.00;93850.53;5092254;28;20032;-69
2023/12/24 09:18:12;;;;;;;2.38;1.20;;;;;;;6.05;100.00;93856.75;5092910;28;20047;-68
2023/12/24 09:20:39;;;;;;;2.57;1.40;;;;;;;5.97;100.00;93848.56;5071061;28;20463;-69
2023/12/24 09:23:05;;;;;;;2.88;1.20;;;;;;;6.14;100.00;93857.16;5083700;28;20375;-69
2023/12/24 09:25:32;;;;;;;2.33;1.20;;;;;;;6.10;100.00;93859.09;5092189;28;20051;-68
2023/12/24 09:27:59;;;;;;;3.20;1.08;;;;;;;6.07;100.00;93857.91;5092823;28;20036;-69
2023/12/24 09:30:26;;;;;;;3.10;1.20;;;;;;;6.06;100.00;93841.97;5092558;28;20051;-69
2023/12/24 09:32:52;;;;;;;2.20;1.40;;;;;;;6.14;100.00;93852.47;5092262;28;20044;-70
2023/12/24 09:35:20;;;;;;;2.78;1.23;;;;;;;6.15;100.00;93855.97;5092579;28;20073;-69
2023/12/24 09:37:47;;;;;;;1.98;1.20;;;;;;;6.08;100.00;93853.25;5092022;28;20052;-69
2023/12/24 09:40:13;;;;;;;2.25;1.10;;;;;;;6.17;100.00;93862.59;5092469;28;20392;-68
2023/12/24 09:42:40;;;;;;;2.83;1.20;;;;;;;6.17;100.00;93850.91;5091716;28;20073;-68
2023/12/24 09:45:07;;;;;;;2.53;1.50;;;;;;;6.24;100.00;93861.84;5092112;28;20044;-69
2023/12/24 09:47:34;;;;;;;2.58;1.38;;;;;;;6.28;100.00;93865.34;5091656;28;20036;-69
2023/12/24 09:50:01;;;;;;;2.53;1.20;;;;;;;6.24;100.00;93866.47;5092442;28;20042;-69
2023/12/24 09:52:29;;;;;;;2.30;1.27;;;;;;;6.25;100.00;93868.81;5092393;28;20055;-69
2023/12/24 09:54:55;;;;;;;2.42;1.30;;;;;;;6.26;100.00;93864.94;5091079;28;20402;-68
2023/12/24 09:57:22;;;;;;;2.63;1.30;;;;;;;6.33;100.00;93875.06;5092096;28;20391;-68
2023/12/24 09:59:49;;;;;;;2.92;1.25;;;;;;;6.29;100.00;93858.72;5089542;28;20075;-69
2023/12/24 10:02:16;;;;;;;2.17;1.10;;;;;;;6.30;100.00;93856.75;5073614;28;20045;-69
2023/12/24 10:04:43;;;;;;;2.40;1.08;;;;;;;6.38;100.00;93850.16;5063116;28;20036;-69
2023/12/24 10:07:10;;;;;;;2.40;1.25;;;;;;;6.35;100.00;93840.03;5092220;28;20098;-69
2023/12/24 10:09:46;;;;;;;2.23;1.30;;;;;;;6.45;100.00;93844.69;5090735;28;20400;-68
2023/12/24 10:12:13;;;;;;;2.50;1.30;;;;;;;6.35;100.00;93838.06;5091881;28;20493;-68
2023/12/24 10:14:41;;;;;;;3.10;1.40;;;;;;;6.38;100.00;93842.75;5091378;28;20387;-69
2023/12/24 10:17:08;;;;;;;2.28;1.20;;;;;;;6.48;100.00;93834.94;5091720;28;20417;-69
2023/12/24 10:19:35;;;;;;;2.10;0.98;;;;;;;6.39;100.00;93833.38;5091429;28;20044;-71
2023/12/24 10:22:07;;;;;;;2.60;1.37;;;;;;;6.38;100.00;93837.31;5090592;28;20032;-69
2023/12/24 10:24:37;;;;;;;2.13;1.20;;;;;;;6.50;100.00;93848.97;5090565;28;20048;-69
2023/12/24 10:27:05;;;;;;;2.03;1.15;;;;;;;6.53;100.00;93832.59;5091578;28;20036;-69
2023/12/24 10:29:34;;;;;;;3.08;1.17;;;;;;;6.47;100.00;93839.63;5091288;28;20435;-69
2023/12/24 10:32:01;;;;;;;2.00;1.10;;;;;;;6.38;100.00;93844.72;5091377;28;20161;-69
2023/12/24 10:34:30;;;;;;;12.53;4.97;;;;;;;6.42;100.00;93847.41;5091399;28;20059;-70
2023/12/24 10:36:59;;;;;;;4.20;2.25;;;;;;;6.37;100.00;93846.63;5090459;28;20052;-69
2023/12/24 10:39:26;;;;;;;3.05;1.70;;;;;;;6.44;100.00;93845.88;5091239;28;20043;-69
2023/12/24 10:41:57;;;;;;;3.47;1.63;;;;;;;6.50;100.00;93849.75;5082938;28;20048;-69
2023/12/24 10:44:24;;;;;;;2.88;1.48;;;;;;;6.54;100.00;93841.56;5091095;28;20396;-69
2023/12/24 10:46:51;;;;;;;2.60;1.20;;;;;;;6.50;100.00;93827.94;5090662;28;20423;-69
2023/12/24 10:49:17;;;;;;;3.35;1.80;;;;;;;6.47;100.00;93823.25;5091122;28;20044;-69
2023/12/24 10:51:44;;;;;;;2.28;1.10;;;;;;;6.62;100.00;93832.22;5090737;28;20036;-70
2023/12/24 10:54:13;;;;;;;3.65;1.10;;;;;;;6.48;100.00;93811.19;5090895;28;20067;-69
2023/12/24 10:57:16;;;;;;;2.75;1.60;;;;;;;6.45;100.00;93803.78;5090789;28;20040;-69
2023/12/24 11:00:14;;;;;;;3.60;1.73;;;;;;;6.51;100.00;93804.94;5089467;28;20489;-70
2023/12/24 11:02:46;;;;;;;4.03;2.17;;;;;;;6.59;100.00;93798.31;5070905;28;20413;-69
2023/12/24 11:05:46;;;;;;;3.20;1.67;;;;;;;6.48;100.00;93794.84;5084214;28;20055;-69
2023/12/24 11:08:22;;;;;;;3.10;1.48;;;;;;;6.62;100.00;93793.25;5076938;28;20295;-69
2023/12/24 11:10:57;;;;;;;2.60;1.33;;;;;;;6.68;100.00;93794.41;5090365;28;20113;-69
2023/12/24 11:13:29;;;;;;;2.47;1.40;;;;;;;6.72;100.00;93797.88;5090783;28;20036;-69
2023/12/24 11:15:57;;;;;;;2.55;1.30;;;;;;;6.64;100.00;93805.34;5089825;28;20404;-68
2023/12/24 11:18:45;;;;;;;2.10;1.00;;;;;;;6.45;100.00;93813.94;5090607;28;20058;-68
2023/12/24 11:21:17;;;;;;;2.60;1.30;;;;;;;6.41;100.00;93794.84;5089128;28;21039;-68
2023/12/24 11:24:08;;;;;;;2.30;1.35;;;;;;;6.38;100.00;93782.00;5089868;28;20396;-69
2023/12/24 11:26:35;;;;;;;2.40;1.40;;;;;;;6.39;100.00;93792.50;5089217;28;20040;-68
2023/12/24 11:29:47;;;;;;;2.40;1.20;;;;;;;6.25;100.00;93783.56;5090261;28;20408;-68
2023/12/24 11:32:26;;;;;;;3.10;1.48;;;;;;;6.40;100.00;93782.41;5088160;28;20044;-69
2023/12/24 11:34:57;;;;;;;4.93;2.78;;;;;;;6.31;100.00;93790.19;5071274;28;20722;-69
2023/12/24 11:37:27;;;;;;;3.25;1.50;;;;;;;6.40;100.00;93782.41;5089873;28;20074;-69